Time;durP1;ratioP1;P1;durP2;ratioP2;P2;SDS_P1;SDS_P2;PMS_P1;PMS_P2;Temp;Humidity;BMP_temperature;BMP_pressure;BME280_temperature;BME280_humidity;BME280_pressure;Samples;Min_cycle;Max_cycle;Signal;HPM_P1;HPM_P2
2023/01/18 00:01:47;;;;;;;9.90;5.20;;;5.80;99.90;;;;;;5071731;28;20195;-61
2023/01/18 00:04:15;;;;;;;18.70;7.33;;;5.80;99.90;;;;;;5069138;28;20227;-62
2023/01/18 00:06:42;;;;;;;27.80;9.07;;;5.80;99.90;;;;;;5072350;28;20205;-61
2023/01/18 00:09:09;;;;;;;30.20;10.97;;;5.80;99.90;;;;;;5071185;28;20188;-62
2023/01/18 00:11:36;;;;;;;29.10;10.53;;;5.70;99.90;;;;;;5070589;28;20191;-62
2023/01/18 00:14:03;;;;;;;32.60;11.03;;;5.70;99.90;;;;;;5068231;28;20206;-63
2023/01/18 00:16:30;;;;;;;27.43;9.63;;;5.60;99.90;;;;;;5066578;28;20209;-60
2023/01/18 00:19:01;;;;;;;21.67;8.23;;;5.60;99.90;;;;;;5067215;28;20209;-61
2023/01/18 00:21:28;;;;;;;16.20;7.00;;;5.50;99.90;;;;;;5071238;28;20838;-63
2023/01/18 00:23:56;;;;;;;11.60;5.77;;;5.50;99.90;;;;;;5067346;28;20302;-62
2023/01/18 00:26:23;;;;;;;12.17;5.53;;;5.50;99.90;;;;;;5071013;28;20594;-63
2023/01/18 00:28:50;;;;;;;9.83;5.00;;;5.50;99.90;;;;;;5068236;28;20231;-62
2023/01/18 00:31:19;;;;;;;11.67;5.53;;;5.60;99.90;;;;;;5068417;28;20195;-62
2023/01/18 00:33:47;;;;;;;13.90;6.10;;;5.50;99.90;;;;;;5067172;28;20200;-62
2023/01/18 00:36:17;;;;;;;12.77;6.10;;;5.50;99.90;;;;;;5068868;28;20226;-62
2023/01/18 00:38:50;;;;;;;11.33;5.43;;;5.50;99.90;;;;;;5071340;28;20265;-62
2023/01/18 00:41:17;;;;;;;8.63;4.73;;;5.50;99.90;;;;;;5069526;28;20274;-62
2023/01/18 00:43:43;;;;;;;9.93;4.30;;;5.50;99.90;;;;;;5069423;28;20209;-62
2023/01/18 00:46:12;;;;;;;6.37;4.33;;;5.50;99.90;;;;;;5071038;28;20261;-62
2023/01/18 00:48:40;;;;;;;11.90;4.53;;;5.50;99.90;;;;;;5066984;28;20195;-62
2023/01/18 00:51:08;;;;;;;13.60;5.50;;;5.50;99.90;;;;;;5072078;28;20601;-62
2023/01/18 00:53:37;;;;;;;7.63;3.97;;;5.50;99.90;;;;;;5070827;28;20304;-61
2023/01/18 00:56:05;;;;;;;9.60;5.00;;;5.50;99.90;;;;;;5067176;28;20206;-61
2023/01/18 00:58:36;;;;;;;7.83;4.57;;;5.60;99.90;;;;;;5068155;28;20198;-62
2023/01/18 01:01:03;;;;;;;8.97;4.73;;;5.60;99.90;;;;;;5069290;28;20273;-61
2023/01/18 01:06:43;;;;;;;10.43;4.80;;;5.50;99.90;;;;;;5068543;28;20229;-62
2023/01/18 01:09:12;;;;;;;9.27;4.60;;;5.50;99.90;;;;;;5071014;28;20568;-63
2023/01/18 01:12:31;;;;;;;7.43;3.90;;;5.50;99.90;;;;;;5071005;28;20205;-61
2023/01/18 01:28:11;;;;;;;14.97;6.03;;;5.40;99.90;;;;;;5068262;28;20286;-61
2023/01/18 01:30:38;;;;;;;16.27;7.00;;;5.40;99.90;;;;;;5066995;28;20253;-61
2023/01/18 01:33:05;;;;;;;16.77;7.47;;;5.30;99.90;;;;;;5067483;28;20197;-61
2023/01/18 01:35:32;;;;;;;19.97;8.40;;;5.30;99.90;;;;;;5072798;28;20192;-62
2023/01/18 01:37:59;;;;;;;11.70;6.47;;;5.30;99.90;;;;;;5064504;28;20218;-62
2023/01/18 01:40:27;;;;;;;16.93;7.37;;;5.30;99.90;;;;;;5069024;28;20191;-62
2023/01/18 01:42:54;;;;;;;15.57;6.37;;;5.30;99.90;;;;;;5066839;28;20203;-62
2023/01/18 01:45:23;;;;;;;12.73;7.23;;;5.30;99.90;;;;;;5069988;28;20666;-62
2023/01/18 01:47:52;;;;;;;16.50;8.30;;;5.30;99.90;;;;;;5067581;28;20199;-62
2023/01/18 01:50:23;;;;;;;12.77;7.30;;;5.30;99.90;;;;;;5071521;28;20222;-62
2023/01/18 01:52:51;;;;;;;11.80;7.03;;;5.30;99.90;;;;;;5065266;28;20211;-62
2023/01/18 01:55:22;;;;;;;9.33;5.20;;;5.30;99.90;;;;;;5067467;28;20223;-61
2023/01/18 01:57:55;;;;;;;8.43;4.87;;;5.30;99.90;;;;;;5066645;28;20289;-61
2023/01/18 02:00:24;;;;;;;8.77;5.47;;;5.30;99.90;;;;;;5066692;28;20598;-62
2023/01/18 02:02:54;;;;;;;7.03;4.57;;;5.30;99.90;;;;;;5067606;28;20589;-62
2023/01/18 02:05:22;;;;;;;7.33;4.70;;;5.30;99.90;;;;;;5071937;28;20225;-62
2023/01/18 02:07:49;;;;;;;7.60;4.27;;;5.30;99.90;;;;;;5072184;28;20660;-62
2023/01/18 02:10:17;;;;;;;7.10;4.63;;;5.30;99.90;;;;;;5074395;28;20206;-62
2023/01/18 02:12:48;;;;;;;6.30;3.90;;;5.60;99.90;;;;;;5073612;28;20608;-62
2023/01/18 02:15:17;;;;;;;4.53;3.93;;;5.40;99.90;;;;;;5074007;28;20273;-62
2023/01/18 02:18:14;;;;;;;8.97;4.87;;;5.40;99.90;;;;;;5071463;28;20267;-61
2023/01/18 02:21:11;;;;;;;14.20;6.10;;;5.40;99.90;;;;;;5075293;28;20529;-62
2023/01/18 02:24:16;;;;;;;13.03;7.10;;;5.40;99.90;;;;;;5072835;28;20190;-62
2023/01/18 02:27:03;;;;;;;9.93;5.93;;;5.30;99.90;;;;;;5072401;28;20194;-62
2023/01/18 02:29:46;;;;;;;9.57;5.57;;;5.30;99.90;;;;;;5071936;28;20199;-61
2023/01/18 02:32:25;;;;;;;11.13;5.33;;;5.20;99.90;;;;;;5073532;28;20221;-62
2023/01/18 02:34:58;;;;;;;9.97;5.57;;;5.20;99.90;;;;;;5071484;28;20236;-61
2023/01/18 02:37:34;;;;;;;9.17;5.07;;;5.20;99.90;;;;;;5074117;28;20207;-61
2023/01/18 02:40:14;;;;;;;9.43;5.13;;;5.20;99.90;;;;;;5075334;28;20197;-62
2023/01/18 02:48:21;;;;;;;6.47;4.17;;;5.40;99.90;;;;;;5074113;28;20205;-61
2023/01/18 02:50:49;;;;;;;9.23;4.87;;;5.40;99.90;;;;;;5073579;28;20261;-61
2023/01/18 02:53:17;;;;;;;11.47;5.97;;;5.40;99.90;;;;;;5075969;28;20684;-61
2023/01/18 02:55:50;;;;;;;12.87;6.70;;;5.40;99.90;;;;;;5069558;28;20206;-62
2023/01/18 02:58:22;;;;;;;7.87;5.17;;;5.30;99.90;;;;;;5071778;28;20211;-62
2023/01/18 03:00:55;;;;;;;9.03;4.97;;;5.30;99.90;;;;;;5072772;28;20220;-62
2023/01/18 03:03:24;;;;;;;4.53;3.57;;;5.30;99.90;;;;;;5071650;28;20234;-62
2023/01/18 03:05:54;;;;;;;5.30;3.77;;;5.30;99.90;;;;;;5073074;28;20203;-62
2023/01/18 03:08:27;;;;;;;5.10;3.43;;;5.30;99.90;;;;;;5073722;28;20649;-62
2023/01/18 03:11:00;;;;;;;5.73;4.13;;;5.10;99.90;;;;;;5073433;28;20689;-62
2023/01/18 03:13:36;;;;;;;6.47;3.83;;;5.20;99.90;;;;;;5071744;28;20211;-62
2023/01/18 03:16:10;;;;;;;5.07;3.73;;;5.20;99.90;;;;;;5071314;28;20569;-62
2023/01/18 03:19:00;;;;;;;8.77;4.73;;;5.20;99.90;;;;;;5071943;28;20561;-62
2023/01/18 03:21:37;;;;;;;8.53;4.63;;;5.20;99.90;;;;;;5075930;28;20549;-62
2023/01/18 03:24:07;;;;;;;7.57;5.00;;;5.20;99.90;;;;;;5071586;28;20213;-62
2023/01/18 03:26:38;;;;;;;7.67;4.67;;;5.10;99.90;;;;;;5070732;28;20370;-62
2023/01/18 03:34:48;;;;;;;5.97;3.67;;;5.20;99.90;;;;;;5067890;28;20344;-63
2023/01/18 03:37:20;;;;;;;5.80;4.17;;;5.20;99.90;;;;;;5072038;28;20197;-61
2023/01/18 03:39:52;;;;;;;9.13;5.13;;;5.20;99.90;;;;;;5067931;28;20207;-61
2023/01/18 03:42:24;;;;;;;7.73;5.37;;;5.30;99.90;;;;;;5072745;28;20193;-62
2023/01/18 03:44:57;;;;;;;9.30;6.00;;;5.20;99.90;;;;;;5070804;28;20593;-62
2023/01/18 03:47:26;;;;;;;10.77;6.20;;;5.20;99.90;;;;;;5074248;28;20696;-62
2023/01/18 03:49:53;;;;;;;8.73;4.70;;;5.20;99.90;;;;;;5072175;28;20658;-62
2023/01/18 03:52:24;;;;;;;6.93;4.80;;;5.20;99.90;;;;;;5072749;28;20309;-62
2023/01/18 03:54:59;;;;;;;5.97;3.93;;;5.20;99.90;;;;;;5073622;28;20565;-62
2023/01/18 03:57:32;;;;;;;6.80;4.37;;;5.20;99.90;;;;;;5068211;28;20205;-62
2023/01/18 04:00:01;;;;;;;6.80;3.93;;;5.20;99.90;;;;;;5065869;28;20190;-63
2023/01/18 04:02:29;;;;;;;5.73;3.90;;;5.30;99.90;;;;;;5070638;28;20221;-62
2023/01/18 04:05:01;;;;;;;4.33;3.53;;;5.30;99.90;;;;;;5071455;28;20265;-62
2023/01/18 04:07:28;;;;;;;3.80;3.37;;;5.30;99.90;;;;;;5070102;28;20606;-62
2023/01/18 04:09:55;;;;;;;4.10;3.47;;;5.30;99.90;;;;;;5071789;28;20198;-62
2023/01/18 04:12:22;;;;;;;5.73;3.23;;;5.40;99.90;;;;;;5069606;28;20198;-62
2023/01/18 04:14:49;;;;;;;4.37;3.60;;;5.40;99.90;;;;;;5070380;28;20528;-63
2023/01/18 04:17:17;;;;;;;4.57;3.27;;;5.40;99.90;;;;;;5069779;28;20224;-61
2023/01/18 04:19:46;;;;;;;5.00;3.47;;;5.40;99.90;;;;;;5067878;28;20227;-62
2023/01/18 04:22:13;;;;;;;4.40;3.57;;;5.40;99.90;;;;;;5069906;28;20201;-62
2023/01/18 04:24:41;;;;;;;12.27;6.53;;;5.40;99.90;;;;;;5069062;28;20736;-62
2023/01/18 04:27:08;;;;;;;7.53;5.07;;;5.40;99.90;;;;;;5069987;28;20524;-62
2023/01/18 04:29:35;;;;;;;7.33;4.30;;;5.40;99.90;;;;;;5067901;28;20202;-64
2023/01/18 04:32:02;;;;;;;7.20;4.63;;;5.40;99.90;;;;;;5070442;28;20213;-61
2023/01/18 04:34:29;;;;;;;8.20;4.97;;;5.30;99.90;;;;;;5072400;28;20209;-61
2023/01/18 04:36:58;;;;;;;7.63;4.40;;;5.40;99.90;;;;;;5068269;28;20222;-61
2023/01/18 04:39:25;;;;;;;5.93;4.47;;;5.40;99.90;;;;;;5069265;28;20210;-62
2023/01/18 04:41:52;;;;;;;9.87;5.43;;;5.50;99.90;;;;;;5067116;28;20204;-63
2023/01/18 04:44:20;;;;;;;11.67;6.67;;;5.50;99.90;;;;;;5068463;28;20202;-62
2023/01/18 04:46:47;;;;;;;9.23;5.80;;;5.50;99.90;;;;;;5070842;28;20192;-62
2023/01/18 04:49:16;;;;;;;8.43;5.37;;;5.40;99.90;;;;;;5072613;28;20298;-62
2023/01/18 04:51:44;;;;;;;8.10;4.80;;;5.40;99.90;;;;;;5069512;28;20651;-62
2023/01/18 04:54:15;;;;;;;9.87;5.37;;;5.40;99.90;;;;;;5071133;28;20204;-61
2023/01/18 04:56:42;;;;;;;7.73;4.90;;;5.40;99.90;;;;;;5065814;28;20191;-61
2023/01/18 04:59:13;;;;;;;8.40;4.43;;;5.40;99.90;;;;;;5066979;28;20192;-62
2023/01/18 05:01:40;;;;;;;9.13;4.93;;;5.40;99.90;;;;;;5070211;28;20194;-62
2023/01/18 05:04:07;;;;;;;8.80;5.43;;;5.40;99.90;;;;;;5067425;28;20751;-62
2023/01/18 05:06:34;;;;;;;9.33;4.90;;;5.40;99.90;;;;;;5069175;28;20261;-61
2023/01/18 05:09:01;;;;;;;17.30;7.27;;;5.40;99.90;;;;;;5068895;28;20198;-61
2023/01/18 05:11:30;;;;;;;13.93;5.97;;;5.40;99.90;;;;;;5068658;28;20235;-62
2023/01/18 05:13:57;;;;;;;13.30;6.20;;;5.40;99.90;;;;;;5068910;28;20220;-61
2023/01/18 05:16:24;;;;;;;10.80;6.07;;;5.40;99.90;;;;;;5068487;28;20199;-61
2023/01/18 05:18:51;;;;;;;13.77;6.30;;;5.40;99.90;;;;;;5067703;28;20631;-61
2023/01/18 05:21:18;;;;;;;13.07;6.17;;;5.40;99.90;;;;;;5070113;28;20207;-61
2023/01/18 05:23:46;;;;;;;10.77;5.73;;;5.40;99.90;;;;;;5070644;28;20207;-61
2023/01/18 05:26:16;;;;;;;11.57;5.80;;;5.40;99.90;;;;;;5065960;28;20207;-62
2023/01/18 05:28:45;;;;;;;12.10;5.50;;;5.40;99.90;;;;;;5066423;28;20250;-62
2023/01/18 05:31:13;;;;;;;12.47;5.50;;;5.40;99.90;;;;;;5069665;28;20202;-61
2023/01/18 05:33:40;;;;;;;13.60;6.13;;;5.40;99.90;;;;;;5069612;28;20202;-62
2023/01/18 05:36:08;;;;;;;15.90;8.43;;;5.40;99.90;;;;;;5070647;28;20203;-62
2023/01/18 05:38:35;;;;;;;17.03;8.57;;;5.40;99.90;;;;;;5066170;28;20230;-62
2023/01/18 05:41:02;;;;;;;16.30;8.00;;;5.40;99.90;;;;;;5069014;28;20202;-61
2023/01/18 05:43:33;;;;;;;14.03;7.40;;;5.40;99.90;;;;;;5069821;28;20198;-61
2023/01/18 05:46:01;;;;;;;12.73;6.87;;;5.40;99.90;;;;;;5068026;28;20570;-61
2023/01/18 05:48:28;;;;;;;12.67;6.40;;;5.50;99.90;;;;;;5066100;28;20528;-61
2023/01/18 05:50:56;;;;;;;10.67;5.90;;;5.50;99.90;;;;;;5067077;28;20221;-61
2023/01/18 05:53:23;;;;;;;10.53;6.20;;;5.40;99.90;;;;;;5068215;28;20195;-62
2023/01/18 05:55:55;;;;;;;13.23;6.47;;;5.40;99.90;;;;;;5069037;28;20533;-63
2023/01/18 05:58:22;;;;;;;13.27;5.70;;;5.40;99.90;;;;;;5067033;28;20527;-62
2023/01/18 06:00:49;;;;;;;12.70;6.20;;;5.40;99.90;;;;;;5068169;28;20651;-61
2023/01/18 06:03:18;;;;;;;9.13;5.23;;;5.40;99.90;;;;;;5070221;28;20200;-61
2023/01/18 06:05:46;;;;;;;12.90;6.00;;;5.40;99.90;;;;;;5069736;28;20235;-61
2023/01/18 06:08:13;;;;;;;10.53;5.47;;;5.30;99.90;;;;;;5068468;28;20183;-61
2023/01/18 06:10:40;;;;;;;7.43;4.70;;;5.30;99.90;;;;;;5067471;28;20194;-62
2023/01/18 06:13:07;;;;;;;10.40;5.80;;;5.30;99.90;;;;;;5067097;28;20277;-61
2023/01/18 06:15:34;;;;;;;13.10;6.73;;;5.30;99.90;;;;;;5068025;28;20195;-62
2023/01/18 06:18:01;;;;;;;14.00;6.00;;;5.30;99.90;;;;;;5066154;28;20282;-61
2023/01/18 06:20:30;;;;;;;9.77;5.67;;;5.30;99.90;;;;;;5067740;28;20194;-61
2023/01/18 06:22:57;;;;;;;10.23;5.50;;;5.30;99.90;;;;;;5068547;28;20194;-62
2023/01/18 06:25:25;;;;;;;9.10;5.37;;;5.30;99.90;;;;;;5070758;28;20202;-62
2023/01/18 06:27:52;;;;;;;9.10;5.47;;;5.30;99.90;;;;;;5070763;28;20190;-62
2023/01/18 06:30:20;;;;;;;9.63;5.90;;;5.20;99.90;;;;;;5067959;28;20190;-62
2023/01/18 06:32:48;;;;;;;9.07;4.90;;;5.20;99.90;;;;;;5069450;28;20195;-62
2023/01/18 06:35:15;;;;;;;10.20;5.70;;;5.30;99.90;;;;;;5069899;28;20285;-62
2023/01/18 06:37:45;;;;;;;9.33;5.33;;;5.30;99.90;;;;;;5069143;28;20237;-62
2023/01/18 06:40:14;;;;;;;8.20;5.57;;;5.30;99.90;;;;;;5069441;28;20226;-62
2023/01/18 06:42:41;;;;;;;11.07;5.37;;;5.30;99.90;;;;;;5070646;28;20229;-62
2023/01/18 06:45:09;;;;;;;14.93;7.50;;;5.30;99.90;;;;;;5069645;28;20192;-61
2023/01/18 06:47:36;;;;;;;9.33;6.33;;;5.40;99.90;;;;;;5069532;28;20186;-62
2023/01/18 06:50:04;;;;;;;9.47;5.60;;;5.40;99.90;;;;;;5070609;28;20568;-61
2023/01/18 06:52:31;;;;;;;10.77;6.37;;;5.40;99.90;;;;;;5073600;28;20195;-62
2023/01/18 06:54:59;;;;;;;10.53;5.97;;;5.40;99.90;;;;;;5073074;28;20210;-61
2023/01/18 06:57:27;;;;;;;12.20;6.50;;;5.40;99.90;;;;;;5069038;28;20195;-61
2023/01/18 06:59:54;;;;;;;10.73;6.20;;;5.40;99.90;;;;;;5069726;28;20566;-63
2023/01/18 07:02:21;;;;;;;9.33;5.60;;;5.40;99.90;;;;;;5067075;28;20663;-62
2023/01/18 07:04:48;;;;;;;8.50;5.63;;;5.40;99.90;;;;;;5071719;28;20235;-62
2023/01/18 07:07:15;;;;;;;18.43;7.47;;;5.40;99.90;;;;;;5071953;28;20203;-62
2023/01/18 07:09:42;;;;;;;14.53;7.67;;;5.40;99.90;;;;;;5071791;28;20199;-62
2023/01/18 07:12:11;;;;;;;12.97;6.80;;;5.40;99.90;;;;;;5067647;28;20569;-61
2023/01/18 07:14:38;;;;;;;9.07;5.93;;;5.40;99.90;;;;;;5055101;28;20195;-61
2023/01/18 07:17:05;;;;;;;10.93;5.77;;;5.40;99.90;;;;;;5069666;28;20206;-63
2023/01/18 07:19:32;;;;;;;11.40;6.37;;;5.40;99.90;;;;;;5071358;28;20216;-61
2023/01/18 07:22:00;;;;;;;9.80;5.80;;;5.40;99.90;;;;;;5071009;28;20196;-61
2023/01/18 07:24:27;;;;;;;21.67;10.63;;;5.40;99.90;;;;;;5073031;28;20225;-62
2023/01/18 07:26:55;;;;;;;16.07;8.20;;;5.40;99.90;;;;;;5072115;28;20553;-61
2023/01/18 07:29:23;;;;;;;13.07;7.43;;;5.30;99.90;;;;;;5071214;28;20478;-62
2023/01/18 07:31:51;;;;;;;12.70;6.73;;;5.30;99.90;;;;;;5070259;28;20190;-61
2023/01/18 07:34:18;;;;;;;11.67;6.23;;;5.30;99.90;;;;;;5071673;28;20192;-62
2023/01/18 07:36:45;;;;;;;10.77;5.83;;;5.30;99.90;;;;;;5070071;28;20285;-61
2023/01/18 07:39:12;;;;;;;16.33;7.67;;;5.40;99.90;;;;;;5072280;28;20214;-61
2023/01/18 07:41:40;;;;;;;16.60;8.30;;;5.40;99.90;;;;;;5070961;28;20268;-62
2023/01/18 07:44:10;;;;;;;14.70;7.37;;;5.40;99.90;;;;;;5071306;28;20186;-61
2023/01/18 07:46:41;;;;;;;11.80;6.40;;;5.40;99.90;;;;;;5069207;28;20202;-61
2023/01/18 07:49:08;;;;;;;14.47;7.43;;;5.50;99.90;;;;;;5068305;28;20216;-62
2023/01/18 07:51:35;;;;;;;14.10;7.17;;;5.50;99.90;;;;;;5069239;28;20201;-61
2023/01/18 07:54:03;;;;;;;16.20;8.03;;;5.50;99.90;;;;;;5070464;28;20282;-62
2023/01/18 07:56:30;;;;;;;11.93;6.53;;;5.50;99.90;;;;;;5069988;28;20196;-62
2023/01/18 07:58:57;;;;;;;15.10;8.13;;;5.50;99.90;;;;;;5065877;28;20295;-62
2023/01/18 08:01:25;;;;;;;15.00;7.47;;;5.50;99.90;;;;;;5068759;28;20195;-62
2023/01/18 08:03:53;;;;;;;12.47;7.50;;;5.60;99.90;;;;;;5068938;28;20231;-62
2023/01/18 08:06:24;;;;;;;10.97;7.10;;;5.60;99.90;;;;;;5068202;28;20208;-62
2023/01/18 08:08:52;;;;;;;13.27;7.10;;;5.60;99.90;;;;;;5068774;28;20200;-62
2023/01/18 08:11:19;;;;;;;13.60;6.97;;;5.60;99.90;;;;;;5066968;28;20207;-62
2023/01/18 08:13:48;;;;;;;17.27;8.03;;;5.60;99.90;;;;;;5068993;28;20207;-62
2023/01/18 08:16:16;;;;;;;11.83;7.47;;;5.60;99.90;;;;;;5067810;28;20333;-61
2023/01/18 08:18:44;;;;;;;8.93;5.87;;;5.70;99.90;;;;;;5066080;28;20219;-61
2023/01/18 08:21:14;;;;;;;10.27;6.07;;;5.70;99.90;;;;;;5070117;28;20195;-62
2023/01/18 08:23:42;;;;;;;10.00;6.57;;;5.80;99.90;;;;;;5069517;28;20632;-61
2023/01/18 08:26:11;;;;;;;9.33;6.13;;;5.80;99.90;;;;;;5070439;28;20241;-62
2023/01/18 08:28:40;;;;;;;9.70;6.30;;;5.80;99.90;;;;;;5068959;28;20192;-62
2023/01/18 08:31:14;;;;;;;10.63;5.90;;;5.80;99.90;;;;;;5063180;28;20198;-63
2023/01/18 08:33:45;;;;;;;8.90;5.83;;;5.80;99.90;;;;;;5067411;28;20202;-61
2023/01/18 08:36:24;;;;;;;9.70;5.93;;;5.80;99.90;;;;;;5068484;28;20204;-64
2023/01/18 08:38:56;;;;;;;8.00;5.13;;;6.50;99.90;;;;;;5068927;28;20287;-64
2023/01/18 08:41:30;;;;;;;8.63;5.67;;;5.90;99.90;;;;;;5066800;28;20196;-62
2023/01/18 08:44:00;;;;;;;12.27;5.43;;;5.90;99.90;;;;;;5070065;28;20199;-63
2023/01/18 08:46:28;;;;;;;8.67;5.60;;;5.90;99.90;;;;;;5066087;28;20253;-62
2023/01/18 08:48:57;;;;;;;10.10;5.93;;;6.00;99.90;;;;;;5069389;28;20200;-61
2023/01/18 08:51:26;;;;;;;7.43;5.00;;;6.00;99.90;;;;;;5065833;28;20191;-62
2023/01/18 08:53:55;;;;;;;6.17;4.43;;;6.00;99.90;;;;;;5067026;28;20239;-62
2023/01/18 08:56:22;;;;;;;8.40;5.20;;;6.10;99.90;;;;;;5068442;28;20195;-62
2023/01/18 08:58:50;;;;;;;13.97;5.50;;;6.10;99.90;;;;;;5062631;28;20224;-62
2023/01/18 09:01:18;;;;;;;13.67;6.47;;;6.10;99.90;;;;;;5065292;28;20208;-62
2023/01/18 09:03:46;;;;;;;9.53;5.37;;;6.10;99.90;;;;;;5067474;28;20197;-63
2023/01/18 09:06:15;;;;;;;12.50;6.50;;;6.10;99.90;;;;;;5069138;28;20204;-62
2023/01/18 09:08:46;;;;;;;8.63;5.43;;;6.20;99.90;;;;;;5068233;28;20195;-62
2023/01/18 09:11:14;;;;;;;10.70;5.80;;;6.20;99.90;;;;;;5067377;28;20663;-61
2023/01/18 09:13:41;;;;;;;9.73;6.00;;;6.20;99.90;;;;;;5071389;28;20754;-62
2023/01/18 09:16:09;;;;;;;8.67;5.50;;;6.20;99.90;;;;;;5064430;28;20195;-61
2023/01/18 09:18:38;;;;;;;9.23;5.33;;;6.30;99.90;;;;;;5065834;28;20217;-62
2023/01/18 09:21:09;;;;;;;8.63;5.23;;;6.40;99.90;;;;;;5066167;28;20192;-61
2023/01/18 09:23:38;;;;;;;11.80;5.33;;;6.40;99.90;;;;;;5066608;28;20900;-62
2023/01/18 09:26:09;;;;;;;9.80;5.40;;;6.40;99.90;;;;;;5068256;28;20805;-61
2023/01/18 09:28:36;;;;;;;6.60;4.40;;;6.40;99.90;;;;;;5067621;28;20351;-62
2023/01/18 09:31:07;;;;;;;11.03;5.90;;;6.40;99.90;;;;;;5066348;28;20185;-62
2023/01/18 09:33:34;;;;;;;13.57;5.20;;;6.40;99.90;;;;;;5067482;28;20219;-61
2023/01/18 09:36:04;;;;;;;7.60;4.90;;;6.40;99.90;;;;;;5066106;28;20196;-62
2023/01/18 09:38:32;;;;;;;6.47;4.37;;;6.40;99.90;;;;;;5069331;28;20220;-62
2023/01/18 09:41:00;;;;;;;7.93;4.90;;;6.50;99.90;;;;;;5069048;28;20197;-63
2023/01/18 09:43:32;;;;;;;10.00;5.43;;;6.50;99.90;;;;;;5071248;28;20291;-63
2023/01/18 09:46:00;;;;;;;9.53;5.37;;;6.50;99.90;;;;;;5065619;28;20193;-62
2023/01/18 09:48:31;;;;;;;8.80;5.73;;;6.60;99.90;;;;;;5066511;28;20710;-61
2023/01/18 09:51:02;;;;;;;8.73;4.97;;;6.70;99.90;;;;;;5064988;28;20197;-62
2023/01/18 09:53:53;;;;;;;10.43;5.23;;;6.70;99.90;;;;;;5066124;28;20193;-63
2023/01/18 09:56:26;;;;;;;9.43;5.27;;;6.80;99.90;;;;;;5062263;28;20197;-63
2023/01/18 09:59:05;;;;;;;9.30;4.87;;;6.80;99.90;;;;;;5065067;28;20686;-62
2023/01/18 10:01:33;;;;;;;6.83;4.57;;;8.20;99.90;;;;;;5066509;28;20199;-62
2023/01/18 10:04:05;;;;;;;9.93;5.40;;;6.80;99.90;;;;;;5066640;28;20221;-62
2023/01/18 10:06:43;;;;;;;10.10;6.00;;;6.90;99.90;;;;;;5068551;28;20715;-60
2023/01/18 10:09:14;;;;;;;10.13;5.90;;;7.60;99.90;;;;;;5067193;28;20189;-62
2023/01/18 10:11:47;;;;;;;18.60;7.80;;;6.90;99.90;;;;;;5063885;28;20192;-62
2023/01/18 10:14:21;;;;;;;16.80;8.03;;;7.00;99.90;;;;;;5067698;28;20729;-63
2023/01/18 10:16:55;;;;;;;22.13;9.27;;;7.10;99.90;;;;;;5067682;28;20196;-61
2023/01/18 10:19:27;;;;;;;13.83;7.17;;;7.10;99.90;;;;;;5066333;28;20840;-62
2023/01/18 10:21:59;;;;;;;10.87;6.07;;;7.10;99.90;;;;;;5067281;28;20196;-61
2023/01/18 10:24:48;;;;;;;11.27;7.07;;;7.20;99.90;;;;;;5067823;28;20276;-61
2023/01/18 10:27:58;;;;;;;11.20;6.00;;;7.20;99.90;;;;;;5071143;28;20243;-62
2023/01/18 10:30:40;;;;;;;10.07;5.30;;;7.50;99.90;;;;;;5043631;28;20213;-62
2023/01/18 10:33:16;;;;;;;8.20;5.03;;;7.80;99.90;;;;;;5069205;28;20556;-61
2023/01/18 10:35:48;;;;;;;7.97;5.10;;;8.00;99.90;;;;;;5070828;28;20231;-62
2023/01/18 10:38:19;;;;;;;5.70;4.20;;;8.10;99.90;;;;;;5070965;28;20652;-62
2023/01/18 10:40:51;;;;;;;6.57;4.03;;;8.00;99.90;;;;;;5072915;28;20231;-62
2023/01/18 10:43:22;;;;;;;4.30;3.40;;;8.00;99.90;;;;;;5072974;28;20197;-62
2023/01/18 10:45:52;;;;;;;9.73;3.77;;;7.90;99.90;;;;;;5071176;28;20243;-61
2023/01/18 10:48:26;;;;;;;4.67;3.47;;;7.80;99.90;;;;;;5069546;28;20212;-62
2023/01/18 10:50:56;;;;;;;4.80;3.30;;;7.80;99.90;;;;;;5067250;28;20280;-61
2023/01/18 10:53:28;;;;;;;3.73;3.13;;;7.70;99.90;;;;;;5069629;28;20664;-63
2023/01/18 10:55:59;;;;;;;4.30;2.83;;;7.70;99.90;;;;;;5066264;28;20197;-62
2023/01/18 10:58:32;;;;;;;3.90;3.00;;;7.60;99.90;;;;;;5064883;28;20197;-62
2023/01/18 11:01:02;;;;;;;6.83;3.30;;;7.60;99.90;;;;;;5068699;28;20535;-61
2023/01/18 11:03:35;;;;;;;5.40;3.30;;;7.60;99.90;;;;;;5069400;28;20276;-61
2023/01/18 11:06:06;;;;;;;3.83;3.07;;;7.60;99.90;;;;;;5070532;28;20188;-63
2023/01/18 11:08:35;;;;;;;7.57;3.70;;;7.70;99.90;;;;;;5070769;28;20195;-62
2023/01/18 11:11:04;;;;;;;3.17;2.93;;;7.60;99.90;;;;;;5072166;28;20210;-61
2023/01/18 11:13:34;;;;;;;3.43;2.73;;;7.60;99.90;;;;;;5070047;28;20515;-62
2023/01/18 11:16:11;;;;;;;6.77;3.40;;;7.60;99.90;;;;;;5072037;28;20199;-62
2023/01/18 11:18:39;;;;;;;8.47;3.23;;;7.60;99.90;;;;;;5067481;28;20576;-61
2023/01/18 11:21:11;;;;;;;5.90;3.37;;;7.70;99.90;;;;;;5069444;28;20198;-62
2023/01/18 11:23:38;;;;;;;6.47;3.40;;;7.70;99.90;;;;;;5069252;28;20238;-62
2023/01/18 11:26:13;;;;;;;6.30;3.63;;;7.70;99.90;;;;;;5070839;28;20247;-63
2023/01/18 11:28:46;;;;;;;9.23;4.57;;;7.70;99.90;;;;;;5085059;28;20200;-63
2023/01/18 11:31:17;;;;;;;14.43;6.03;;;7.70;99.90;;;;;;5066695;28;20215;-63
2023/01/18 11:33:53;;;;;;;9.93;5.10;;;7.70;99.90;;;;;;5070713;28;20189;-61
2023/01/18 11:36:32;;;;;;;4.97;3.90;;;7.60;99.90;;;;;;5067372;28;20192;-62
2023/01/18 11:39:18;;;;;;;4.73;3.50;;;7.60;99.90;;;;;;5070938;28;20215;-61
2023/01/18 11:41:45;;;;;;;6.43;4.10;;;7.60;99.90;;;;;;5071945;28;20242;-62
2023/01/18 11:44:21;;;;;;;6.03;4.10;;;7.60;99.90;;;;;;5070889;28;20549;-62
2023/01/18 11:46:51;;;;;;;6.17;4.17;;;7.60;99.90;;;;;;5071095;28;20191;-62
2023/01/18 11:49:29;;;;;;;8.27;4.37;;;7.60;99.90;;;;;;5067852;28;20193;-62
2023/01/18 11:52:01;;;;;;;19.03;8.03;;;7.60;99.90;;;;;;5069129;28;20200;-61
2023/01/18 11:54:35;;;;;;;11.30;6.40;;;7.60;99.90;;;;;;5066331;28;20236;-62
2023/01/18 11:57:02;;;;;;;15.47;7.67;;;7.60;99.90;;;;;;5062136;28;20227;-61
2023/01/18 11:59:32;;;;;;;9.00;6.03;;;7.60;99.90;;;;;;5065809;28;20274;-62
2023/01/18 12:02:20;;;;;;;8.00;5.43;;;7.60;99.90;;;;;;5069130;28;20198;-62
2023/01/18 12:05:00;;;;;;;6.50;4.90;;;7.60;99.90;;;;;;5069216;28;20327;-62
2023/01/18 12:07:44;;;;;;;6.43;4.90;;;7.60;99.90;;;;;;5068357;28;20193;-63
2023/01/18 12:10:20;;;;;;;10.13;6.47;;;7.60;99.90;;;;;;5067205;28;20238;-63
2023/01/18 12:13:04;;;;;;;13.27;6.67;;;7.60;99.90;;;;;;5065786;28;20189;-62
2023/01/18 12:15:51;;;;;;;8.97;5.83;;;7.60;99.90;;;;;;5065560;28;20228;-62
2023/01/18 12:18:44;;;;;;;13.93;6.30;;;7.60;99.90;;;;;;5068076;28;20217;-61
2023/01/18 12:21:13;;;;;;;12.10;6.07;;;7.60;99.90;;;;;;5065630;28;20220;-62
2023/01/18 12:24:04;;;;;;;9.37;5.77;;;7.60;99.90;;;;;;5063873;28;20193;-62
2023/01/18 12:26:45;;;;;;;8.07;5.43;;;7.60;99.90;;;;;;5056646;28;20681;-61
2023/01/18 12:29:53;;;;;;;5.40;3.83;;;7.60;99.90;;;;;;5069310;28;20276;-63
2023/01/18 12:32:33;;;;;;;4.30;3.20;;;7.60;99.90;;;;;;5034415;28;20825;-63
2023/01/18 12:35:22;;;;;;;3.83;3.17;;;7.60;99.90;;;;;;5062099;28;20550;-62
2023/01/18 12:38:00;;;;;;;5.77;3.63;;;7.60;99.90;;;;;;5066611;28;20214;-61
2023/01/18 12:40:46;;;;;;;5.90;3.40;;;7.60;99.90;;;;;;5070792;28;20205;-62
2023/01/18 12:43:27;;;;;;;6.50;3.60;;;7.60;99.90;;;;;;5064933;28;20190;-63
2023/01/18 12:46:03;;;;;;;9.00;3.73;;;7.60;99.90;;;;;;5067280;28;20537;-61
2023/01/18 12:48:34;;;;;;;5.50;3.80;;;7.60;99.90;;;;;;5068028;28;20181;-62
2023/01/18 12:51:08;;;;;;;5.67;3.30;;;7.50;99.90;;;;;;5065096;28;20189;-63
2023/01/18 12:53:44;;;;;;;10.13;4.47;;;7.50;99.90;;;;;;5067661;28;20196;-61
2023/01/18 12:56:16;;;;;;;6.87;4.60;;;7.50;99.90;;;;;;5066323;28;20212;-63
2023/01/18 12:58:44;;;;;;;15.37;7.37;;;7.50;99.90;;;;;;5065495;28;20189;-61
2023/01/18 13:01:19;;;;;;;16.67;8.93;;;7.50;99.90;;;;;;5066960;28;20247;-62
2023/01/18 13:03:49;;;;;;;13.33;7.63;;;7.50;99.90;;;;;;5066833;28;20543;-62
2023/01/18 13:06:19;;;;;;;9.70;5.67;;;7.50;99.90;;;;;;5068204;28;20200;-62
2023/01/18 13:08:51;;;;;;;13.07;7.63;;;7.50;99.90;;;;;;5065491;28;20196;-62
2023/01/18 13:11:23;;;;;;;14.93;7.40;;;7.50;99.90;;;;;;5065452;28;20197;-62
2023/01/18 13:13:59;;;;;;;13.97;8.50;;;7.50;99.90;;;;;;5068496;28;20284;-61
2023/01/18 13:16:38;;;;;;;11.17;6.80;;;7.50;99.90;;;;;;5062893;28;20189;-62
2023/01/18 13:19:10;;;;;;;12.27;7.03;;;7.40;99.90;;;;;;5067915;28;20196;-62
2023/01/18 13:21:47;;;;;;;20.17;9.23;;;7.50;99.90;;;;;;5069157;28;20205;-62
2023/01/18 13:24:26;;;;;;;12.17;7.37;;;7.50;99.90;;;;;;5068590;28;20189;-62
2023/01/18 13:27:05;;;;;;;14.43;8.40;;;7.40;99.90;;;;;;5069653;28;20196;-62
2023/01/18 13:29:32;;;;;;;15.27;8.33;;;7.50;99.90;;;;;;5067937;28;20599;-62
2023/01/18 13:32:00;;;;;;;17.03;8.73;;;7.50;99.90;;;;;;5070720;28;20530;-63
2023/01/18 13:34:32;;;;;;;18.87;9.60;;;7.50;99.90;;;;;;5063937;28;20197;-63
2023/01/18 13:37:02;;;;;;;18.00;9.07;;;7.50;99.90;;;;;;5067063;28;20193;-63
2023/01/18 13:39:31;;;;;;;14.03;8.63;;;7.40;99.90;;;;;;5068827;28;20259;-62
2023/01/18 13:42:23;;;;;;;13.23;7.30;;;7.40;99.90;;;;;;5068546;28;20586;-62